Terminal Aerodrome Forecast
Issued by NWS Tulsa, OK

Home | Current Version | Previous Version | Text Only | Print | Product List | Glossary On
Versions: 1 2 3 4 5 6 7 8 9 10 11 12
000
FTUS44 KTSA 291100
TAFFSM
TAF
KFSM 291120Z 2912/3012 00000KT P6SM FEW250
     FM291600 04006KT P6SM SCT100 SCT250
     FM300300 07003KT P6SM BKN250=

USA.gov is the U.S. government's official web portal to all federal, state and local government web resources and services.